Time;durP1;ratioP1;P1;durP2;ratioP2;P2;SDS_P1;SDS_P2;PMS_P1;PMS_P2;Temp;Humidity;BMP_temperature;BMP_pressure;BME280_temperature;BME280_humidity;BME280_pressure;Samples;Min_cycle;Max_cycle;Signal;HPM_P1;HPM_P2
2022/11/02 00:01:02;;;;;;;;;;;;;;;11.49;80.34;101636.78;5020790;28;19925;-53
2022/11/02 00:03:27;;;;;;;;;;;;;;;11.47;80.56;101639.47;5024183;28;19921;-53
2022/11/02 00:05:52;;;;;;;;;;;;;;;11.47;80.48;101647.38;5025397;28;19943;-53
2022/11/02 00:08:18;;;;;;;;;;;;;;;11.48;80.62;101643.81;5027094;28;19925;-55
2022/11/02 00:10:43;;;;;;;;;;;;;;;11.48;80.32;101645.63;5022373;28;20365;-53
2022/11/02 00:13:08;;;;;;;;;;;;;;;11.49;80.37;101647.31;5022413;28;19925;-53
2022/11/02 00:15:34;;;;;;;;;;;;;;;11.47;80.13;101650.00;5021141;28;19928;-53
2022/11/02 00:18:04;;;;;;;;;;;;;;;11.45;80.16;101649.22;5027295;28;20377;-53
2022/11/02 00:20:30;;;;;;;;;;;;;;;11.40;80.01;101645.97;5032271;28;19929;-53
2022/11/02 00:22:57;;;;;;;;;;;;;;;11.36;79.75;101649.66;5027880;28;19924;-53
2022/11/02 00:25:24;;;;;;;;;;;;;;;11.28;79.71;101645.59;5025936;28;19928;-53
2022/11/02 00:27:49;;;;;;;;;;;;;;;11.25;79.82;101648.41;5027163;28;20466;-55
2022/11/02 00:30:15;;;;;;;;;;;;;;;11.22;79.80;101645.03;5019661;28;19925;-55
2022/11/02 00:32:40;;;;;;;;;;;;;;;11.18;80.02;101657.50;5030011;28;20288;-53
2022/11/02 00:35:06;;;;;;;;;;;;;;;11.18;80.09;101656.66;5023588;28;20309;-55
2022/11/02 00:37:31;;;;;;;;;;;;;;;11.16;79.98;101653.22;5024614;28;19982;-53
2022/11/02 00:39:56;;;;;;;;;;;;;;;11.13;80.13;101649.81;5024947;28;20045;-53
2022/11/02 00:42:22;;;;;;;;;;;;;;;11.12;79.97;101648.09;5027053;28;19936;-53
2022/11/02 00:44:47;;;;;;;;;;;;;;;11.10;79.92;101655.22;5028895;28;20377;-56
2022/11/02 00:47:12;;;;;;;;;;;;;;;11.09;79.80;101642.13;5024319;28;19968;-52
2022/11/02 00:49:38;;;;;;;;;;;;;;;11.07;79.73;101649.22;5026800;28;19933;-53
2022/11/02 00:52:03;;;;;;;;;;;;;;;11.03;79.43;101651.16;5026129;28;19921;-53
2022/11/02 00:54:29;;;;;;;;;;;;;;;10.98;79.06;101640.81;5029119;28;20395;-52
2022/11/02 00:56:55;;;;;;;;;;;;;;;10.93;78.94;101645.44;5024120;28;20385;-53
2022/11/02 00:59:20;;;;;;;;;;;;;;;10.88;78.71;101638.69;5025489;28;19917;-54
2022/11/02 01:01:48;;;;;;;;;;;;;;;10.85;78.39;101639.66;5021939;28;19927;-53
2022/11/02 01:04:13;;;;;;;;;;;;;;;10.78;78.39;101639.06;5033966;28;19921;-53
2022/11/02 01:06:39;;;;;;;;;;;;;;;10.73;78.05;101645.47;5026586;28;20007;-52
2022/11/02 01:09:04;;;;;;;;;;;;;;;10.65;77.70;101636.16;5022286;28;19975;-52
2022/11/02 01:11:30;;;;;;;;;;;;;;;10.60;77.57;101634.59;5025900;28;20014;-53
2022/11/02 01:16:58;;;;;;;;;;;;;;;10.45;77.33;101636.13;5025066;28;19971;-53
2022/11/02 01:19:24;;;;;;;;;;;;;;;10.41;77.43;101645.06;5033848;28;19925;-53
2022/11/02 01:21:49;;;;;;;;;;;;;;;10.36;77.32;101642.63;5021408;28;19940;-54
2022/11/02 01:24:14;;;;;;;;;;;;;;;10.31;77.65;101636.69;5029712;28;19921;-54
2022/11/02 01:26:40;;;;;;;;;;;;;;;10.29;77.45;101635.88;5026626;28;20075;-54
2022/11/02 01:29:05;;;;;;;;;;;;;;;10.28;77.63;101637.69;5032988;28;19921;-54
2022/11/02 01:31:30;;;;;;;;;;;;;;;10.25;77.51;101636.97;5023717;28;20372;-53
2022/11/02 01:33:56;;;;;;;;;;;;;;;10.20;77.01;101632.75;5025942;28;19957;-53
2022/11/02 01:36:21;;;;;;;;;;;;;;;10.18;77.04;101633.72;5025101;28;20376;-52
2022/11/02 01:38:48;;;;;;;;;;;;;;;10.14;77.00;101626.88;5028822;28;20015;-53
2022/11/02 01:41:13;;;;;;;;;;;;;;;10.08;76.72;101630.63;5021318;28;19921;-55
2022/11/02 01:43:42;;;;;;;;;;;;;;;10.04;76.85;101624.66;5027734;28;20331;-52
2022/11/02 01:46:10;;;;;;;;;;;;;;;10.01;76.77;101632.66;5022064;28;20839;-53
2022/11/02 01:48:47;;;;;;;;;;;;;;;9.98;76.54;101624.88;5029289;28;19940;-54
2022/11/02 01:51:33;;;;;;;;;;;;;;;9.91;76.43;101624.28;5023933;28;19971;-53
2022/11/02 01:54:01;;;;;;;;;;;;;;;9.87;76.35;101612.19;5019363;28;20400;-53
2022/11/02 01:56:29;;;;;;;;;;;;;;;9.82;76.34;101618.53;5017331;28;19917;-52
2022/11/02 01:58:57;;;;;;;;;;;;;;;9.80;76.65;101613.34;5024968;28;19921;-53
2022/11/02 02:01:23;;;;;;;;;;;;;;;9.76;76.53;101612.59;5027559;28;20013;-53
2022/11/02 02:03:49;;;;;;;;;;;;;;;9.73;76.59;101607.50;5027079;28;19987;-53
2022/11/02 02:06:14;;;;;;;;;;;;;;;9.70;76.67;101597.09;5025128;28;19921;-52
2022/11/02 02:08:42;;;;;;;;;;;;;;;9.70;77.02;101597.09;5022692;28;20419;-52
2022/11/02 02:11:24;;;;;;;;;;;;;;;9.69;77.07;101598.00;5020802;28;19956;-55
2022/11/02 02:13:50;;;;;;;;;;;;;;;9.69;76.96;101598.00;5021057;28;19952;-54
2022/11/02 02:16:19;;;;;;;;;;;;;;;9.70;76.96;101605.00;5028630;28;19956;-52
2022/11/02 02:18:48;;;;;;;;;;;;;;;9.73;76.94;101606.63;5027434;28;20364;-54
2022/11/02 02:21:13;;;;;;;;;;;;;;;9.74;76.83;101614.47;5030216;28;19925;-53
2022/11/02 02:23:38;;;;;;;;;;;;;;;9.73;76.82;101620.63;5020572;28;20399;-54
2022/11/02 02:26:22;;;;;;;;;;;;;;;9.73;76.82;101618.00;5021006;28;19916;-53
2022/11/02 02:28:53;;;;;;;;;;;;;;;9.71;76.82;101608.47;5026060;28;19928;-54
2022/11/02 02:31:18;;;;;;;;;;;;;;;9.70;76.87;101601.50;5027523;28;19924;-53
2022/11/02 02:33:49;;;;;;;;;;;;;;;9.68;76.90;101604.19;5024156;28;20312;-54
2022/11/02 02:36:20;;;;;;;;;;;;;;;9.65;76.68;101593.78;5019771;28;19933;-54
2022/11/02 02:38:47;;;;;;;;;;;;;;;9.70;76.99;101597.09;5022106;28;19923;-54
2022/11/02 02:41:15;;;;;;;;;;;;;;;9.71;76.55;101593.56;5021375;28;19963;-52
2022/11/02 02:43:49;;;;;;;;;;;;;;;9.68;76.33;101588.41;5031253;28;19991;-51
2022/11/02 02:46:19;;;;;;;;;;;;;;;9.65;75.98;101591.16;5023321;28;20032;-53
2022/11/02 02:48:45;;;;;;;;;;;;;;;9.60;76.10;101587.88;5024192;28;19964;-53
2022/11/02 02:51:15;;;;;;;;;;;;;;;9.51;76.09;101575.09;5021864;28;19917;-52
2022/11/02 02:53:52;;;;;;;;;;;;;;;9.43;76.17;101581.53;5020528;28;19924;-54
2022/11/02 02:56:20;;;;;;;;;;;;;;;9.42;76.46;101586.81;5015819;28;19945;-52
2022/11/02 02:58:48;;;;;;;;;;;;;;;9.41;76.63;101586.00;5023281;28;20424;-53
2022/11/02 03:01:15;;;;;;;;;;;;;;;9.40;76.38;101586.03;5029795;28;19952;-52
2022/11/02 03:03:41;;;;;;;;;;;;;;;9.42;76.58;101586.81;5025562;28;19921;-53
2022/11/02 03:06:38;;;;;;;;;;;;;;;9.45;76.91;101582.28;5026058;28;20304;-52
2022/11/02 03:09:19;;;;;;;;;;;;;;;9.48;76.80;101581.34;4990649;28;19925;-53
2022/11/02 03:12:17;;;;;;;;;;;;;;;9.49;76.55;101580.44;5020644;28;20396;-53
2022/11/02 03:14:54;;;;;;;;;;;;;;;9.48;76.37;101583.09;5006996;28;19916;-54
2022/11/02 03:17:28;;;;;;;;;;;;;;;9.45;76.49;101576.19;5019678;28;19954;-54
2022/11/02 03:19:57;;;;;;;;;;;;;;;9.45;76.46;101578.84;5028968;28;20012;-53
2022/11/02 03:22:26;;;;;;;;;;;;;;;9.43;76.52;101581.53;5025514;28;19917;-52
2022/11/02 03:25:03;;;;;;;;;;;;;;;9.43;76.64;101578.03;5023162;28;19917;-52
2022/11/02 03:27:28;;;;;;;;;;;;;;;9.40;76.23;101579.03;5024733;28;20008;-52
2022/11/02 03:30:04;;;;;;;;;;;;;;;9.35;76.04;101573.09;5024512;28;20004;-52
2022/11/02 03:32:47;;;;;;;;;;;;;;;9.29;75.59;101568.09;5020278;28;20016;-53
2022/11/02 03:35:23;;;;;;;;;;;;;;;9.28;75.82;101569.00;5027534;28;20468;-53
2022/11/02 03:37:57;;;;;;;;;;;;;;;9.28;76.20;101564.59;5025748;28;19925;-52
2022/11/02 03:40:42;;;;;;;;;;;;;;;9.30;76.06;101567.16;5027062;28;19917;-54
2022/11/02 03:43:09;;;;;;;;;;;;;;;9.28;76.00;101572.47;5032104;28;19916;-53
2022/11/02 03:45:40;;;;;;;;;;;;;;;9.31;76.41;101587.25;5034750;28;20377;-54
2022/11/02 03:48:06;;;;;;;;;;;;;;;9.35;76.50;101580.97;5028264;28;20852;-52
2022/11/02 03:50:33;;;;;;;;;;;;;;;9.42;76.80;101582.44;5024613;28;20418;-52
2022/11/02 03:53:11;;;;;;;;;;;;;;;9.46;76.91;101578.75;5032267;28;19921;-55
2022/11/02 03:55:38;;;;;;;;;;;;;;;9.52;77.15;101587.31;5027022;28;20304;-53
2022/11/02 03:58:04;;;;;;;;;;;;;;;9.59;77.03;101578.28;5025292;28;19968;-54
2022/11/02 04:00:33;;;;;;;;;;;;;;;9.62;77.21;101583.41;5029502;28;19961;-54
2022/11/02 04:03:01;;;;;;;;;;;;;;;9.66;77.11;101582.38;5031589;28;19928;-53
2022/11/02 04:05:31;;;;;;;;;;;;;;;9.69;76.96;101595.38;5031768;28;19917;-53
2022/11/02 04:14:36;;;;;;;;;;;;;;;9.75;77.18;101581.13;5024525;28;19936;-53
2022/11/02 04:16:10;;;;;;;;;;;;;;;9.82;77.17;101582.63;5024535;28;20403;-53
2022/11/02 04:21:20;;;;;;;;;;;;;;;9.84;77.41;101578.13;5027852;28;19932;-53
2022/11/02 04:26:29;;;;;;;;;;;;;;;9.85;77.41;101582.47;5028488;28;19936;-53
2022/11/02 04:28:54;;;;;;;;;;;;;;;9.85;77.51;101585.09;5026167;28;19925;-53
2022/11/02 04:31:19;;;;;;;;;;;;;;;9.84;77.31;101583.38;5023148;28;19979;-55
2022/11/02 04:33:45;;;;;;;;;;;;;;;9.84;77.45;101577.28;5028330;28;20020;-53
2022/11/02 04:36:10;;;;;;;;;;;;;;;9.83;77.63;101581.66;5067799;22;20356;-54
2022/11/02 04:38:42;;;;;;;;;;;;;;;9.81;77.67;101583.53;5064070;28;19932;-54
2022/11/02 04:43:55;;;;;;;;;;;;;;;9.80;77.70;101586.19;5071125;28;19938;-54
2022/11/02 04:46:21;;;;;;;;;;;;;;;9.79;77.94;101581.88;5066015;28;20403;-54
2022/11/02 04:48:47;;;;;;;;;;;;;;;9.80;77.79;101583.56;5063432;28;20394;-54
2022/11/02 04:51:12;;;;;;;;;;;;;;;9.78;77.72;101583.66;5065732;28;19921;-53
2022/11/02 04:53:37;;;;;;;;;;;;;;;9.78;77.88;101575.75;5067716;28;19961;-54
2022/11/02 04:56:03;;;;;;;;;;;;;;;9.76;77.96;101573.19;5060908;28;19951;-55
2022/11/02 04:58:28;;;;;;;;;;;;;;;9.76;77.98;101562.66;5061874;28;20022;-54
2022/11/02 05:00:53;;;;;;;;;;;;;;;9.77;77.98;101569.63;5066106;28;19970;-53
2022/11/02 05:03:19;;;;;;;;;;;;;;;9.77;78.03;101577.53;5066449;28;19929;-53
2022/11/02 05:05:44;;;;;;;;;;;;;;;9.79;77.95;101568.72;5067109;28;20382;-54
2022/11/02 05:08:09;;;;;;;;;;;;;;;9.77;77.99;101569.63;5062091;28;19920;-55
2022/11/02 05:10:35;;;;;;;;;;;;;;;9.80;78.06;101573.94;5068676;28;19921;-55
2022/11/02 05:13:00;;;;;;;;;;;;;;;9.80;77.93;101573.06;5063054;28;19931;-54
2022/11/02 05:15:25;;;;;;;;;;;;;;;9.79;77.99;101573.97;5063390;28;20047;-55
2022/11/02 05:17:51;;;;;;;;;;;;;;;9.79;77.90;101577.47;5064210;28;19929;-54
2022/11/02 05:20:16;;;;;;;;;;;;;;;9.79;77.83;101580.09;5071154;28;19924;-55
2022/11/02 05:22:41;;;;;;;;;;;;;;;9.80;77.81;101591.47;5062152;28;19928;-53
2022/11/02 05:25:10;;;;;;;;;;;;;;;9.76;77.89;101588.94;5064104;28;19940;-54
2022/11/02 05:27:36;;;;;;;;;;;;;;;9.75;77.70;101584.63;5067699;28;19971;-55
2022/11/02 05:30:02;;;;;;;;;;;;;;;9.74;77.68;101590.81;5072530;28;20316;-54
2022/11/02 05:32:28;;;;;;;;;;;;;;;9.71;77.64;101590.94;5061535;28;20031;-55
2022/11/02 05:34:53;;;;;;;;;;;;;;;9.70;77.61;101597.09;5062282;28;20499;-54
2022/11/02 05:37:18;;;;;;;;;;;;;;;9.69;77.68;101605.91;5063106;28;19939;-54
2022/11/02 05:39:43;;;;;;;;;;;;;;;9.68;77.80;101609.44;5054625;28;19932;-54
2022/11/02 05:42:09;;;;;;;;;;;;;;;9.67;77.83;101607.72;5062411;28;20369;-55
2022/11/02 05:44:34;;;;;;;;;;;;;;;9.65;77.74;101613.97;5061514;28;19928;-54
2022/11/02 05:47:00;;;;;;;;;;;;;;;9.65;77.69;101606.09;5062841;28;20299;-56
2022/11/02 05:49:25;;;;;;;;;;;;;;;9.61;77.66;101610.59;5063669;28;19974;-54
2022/11/02 05:51:50;;;;;;;;;;;;;;;9.60;77.58;101616.78;5063311;28;19916;-53
2022/11/02 05:54:16;;;;;;;;;;;;;;;9.57;77.60;101614.28;5046634;28;19931;-55
2022/11/02 05:56:41;;;;;;;;;;;;;;;9.55;77.70;101616.09;5065850;28;20787;-56
2022/11/02 05:59:07;;;;;;;;;;;;;;;9.53;77.63;101615.31;5069880;28;19917;-55
2022/11/02 06:01:32;;;;;;;;;;;;;;;9.50;77.77;101610.16;5063766;28;19928;-54
2022/11/02 06:03:57;;;;;;;;;;;;;;;9.48;77.71;101618.13;5069003;28;19926;-55
2022/11/02 06:06:23;;;;;;;;;;;;;;;9.46;77.83;101615.53;5063617;28;19986;-55
2022/11/02 06:08:48;;;;;;;;;;;;;;;9.44;77.67;101620.03;5070002;28;20284;-56
2022/11/02 06:11:14;;;;;;;;;;;;;;;9.44;77.64;101619.16;5060670;28;19920;-54
2022/11/02 06:13:39;;;;;;;;;;;;;;;9.41;77.64;101614.88;5071134;28;20011;-54
2022/11/02 06:16:08;;;;;;;;;;;;;;;9.39;77.66;101619.34;5071245;28;20008;-54
2022/11/02 06:18:33;;;;;;;;;;;;;;;9.38;77.67;101619.38;5069829;28;19951;-54
2022/11/02 06:20:59;;;;;;;;;;;;;;;9.35;77.85;101620.34;5066358;28;19967;-54
2022/11/02 06:23:24;;;;;;;;;;;;;;;9.32;77.92;101617.00;5068580;28;19920;-56
2022/11/02 06:25:53;;;;;;;;;;;;;;;9.30;77.83;101619.69;5072337;28;20359;-54
2022/11/02 06:28:19;;;;;;;;;;;;;;;9.29;77.90;101613.56;5065531;28;19943;-54
2022/11/02 06:30:48;;;;;;;;;;;;;;;9.28;77.99;101606.59;5060850;28;20196;-57
2022/11/02 06:33:13;;;;;;;;;;;;;;;9.27;78.06;101604.06;5068445;28;19983;-56
2022/11/02 06:35:39;;;;;;;;;;;;;;;9.29;78.02;101604.84;5065624;28;19963;-54
2022/11/02 06:38:04;;;;;;;;;;;;;;;9.28;78.05;101608.41;5065539;28;20393;-54
2022/11/02 06:40:29;;;;;;;;;;;;;;;9.27;78.18;101607.53;5063630;28;20372;-56
2022/11/02 06:42:55;;;;;;;;;;;;;;;9.29;78.08;101602.22;5068305;28;20397;-54
2022/11/02 06:45:21;;;;;;;;;;;;;;;9.30;77.98;101609.19;5068404;28;19922;-54
2022/11/02 06:47:47;;;;;;;;;;;;;;;9.33;77.97;101613.47;5067067;28;19920;-54
2022/11/02 06:50:12;;;;;;;;;;;;;;;9.33;78.14;101613.47;5065549;28;19927;-54
2022/11/02 06:52:41;;;;;;;;;;;;;;;9.34;77.98;101615.19;5065055;28;20316;-54
2022/11/02 06:55:07;;;;;;;;;;;;;;;9.35;77.99;101607.22;5059567;28;19962;-54
2022/11/02 06:57:36;;;;;;;;;;;;;;;9.39;77.93;101614.09;5067228;28;19920;-57
2022/11/02 07:00:03;;;;;;;;;;;;;;;9.40;77.91;101618.41;5067619;28;20010;-56
2022/11/02 07:02:29;;;;;;;;;;;;;;;9.42;77.86;101618.34;5051919;28;19920;-54
2022/11/02 07:04:54;;;;;;;;;;;;;;;9.41;78.00;101620.13;5062728;28;19931;-55
2022/11/02 07:07:19;;;;;;;;;;;;;;;9.43;78.00;101626.19;5057486;28;20406;-55
2022/11/02 07:09:45;;;;;;;;;;;;;;;9.49;77.97;101635.59;5061830;28;19978;-54
2022/11/02 07:12:10;;;;;;;;;;;;;;;9.53;77.65;101628.44;5049868;28;19935;-55
2022/11/02 07:14:35;;;;;;;;;;;;;;;9.53;77.76;101637.16;5064749;28;20300;-54
2022/11/02 07:17:01;;;;;;;;;;;;;;;9.56;77.88;101636.22;5070987;28;20288;-56
2022/11/02 07:19:26;;;;;;;;;;;;;;;9.56;77.62;101641.47;5065560;28;19921;-54
2022/11/02 07:21:51;;;;;;;;;;;;;;;9.60;77.68;101640.44;5060526;28;20339;-56
2022/11/02 07:24:16;;;;;;;;;;;;;;;9.61;77.60;101639.50;5058553;28;19933;-53
2022/11/02 07:26:42;;;;;;;;;;;;;;;9.64;77.47;101644.63;5059368;28;19921;-55
2022/11/02 07:29:07;;;;;;;;;;;;;;;9.65;77.67;101643.72;5062540;28;19929;-54
2022/11/02 07:31:32;;;;;;;;;;;;;;;9.67;77.62;101647.16;5071279;28;19920;-56
2022/11/02 07:33:58;;;;;;;;;;;;;;;9.70;77.80;101646.16;5065487;28;19948;-56
2022/11/02 07:36:23;;;;;;;;;;;;;;;9.72;77.79;101645.22;5070463;28;20383;-56
2022/11/02 07:38:48;;;;;;;;;;;;;;;9.76;77.64;101636.25;5064252;28;19916;-54
2022/11/02 07:41:14;;;;;;;;;;;;;;;9.82;77.61;101637.81;5065056;28;19955;-57
2022/11/02 07:43:39;;;;;;;;;;;;;;;9.86;77.51;101639.38;5072341;28;20390;-56
2022/11/02 07:46:05;;;;;;;;;;;;;;;9.88;77.37;101636.72;5068397;28;19927;-58
2022/11/02 07:48:30;;;;;;;;;;;;;;;9.91;77.53;101641.81;5065802;28;20386;-54
2022/11/02 07:50:57;;;;;;;;;;;;;;;9.95;77.54;101638.16;5068394;28;19970;-54
2022/11/02 07:53:23;;;;;;;;;;;;;;;9.97;77.75;101641.59;5071053;28;19917;-55
2022/11/02 07:55:48;;;;;;;;;;;;;;;10.00;77.65;101641.47;5066199;28;19929;-54
2022/11/02 07:58:14;;;;;;;;;;;;;;;10.03;77.68;101636.09;5068241;28;19920;-57
2022/11/02 08:00:40;;;;;;;;;;;;;;;10.06;77.82;101627.19;5069700;28;19954;-56
2022/11/02 08:03:06;;;;;;;;;;;;;;;10.10;77.53;101625.28;5068119;28;19927;-55
2022/11/02 08:05:35;;;;;;;;;;;;;;;10.13;77.68;101615.53;5065646;28;20287;-54
2022/11/02 08:08:02;;;;;;;;;;;;;;;10.17;77.56;101616.25;5067195;28;20427;-54
2022/11/02 08:10:28;;;;;;;;;;;;;;;10.20;77.49;101613.50;5074205;28;20046;-54
2022/11/02 08:12:54;;;;;;;;;;;;;;;10.23;77.29;101623.84;5066200;28;20364;-55
2022/11/02 08:15:19;;;;;;;;;;;;;;;10.26;77.41;101634.25;5063456;28;19942;-54
2022/11/02 08:17:44;;;;;;;;;;;;;;;10.30;77.31;101627.06;5068925;28;19951;-55
2022/11/02 08:20:10;;;;;;;;;;;;;;;10.35;77.22;101631.25;5066633;28;20374;-53
2022/11/02 08:22:36;;;;;;;;;;;;;;;10.39;77.00;101629.38;5070855;28;19917;-54
2022/11/02 08:25:01;;;;;;;;;;;;;;;10.42;76.91;101631.00;5072944;28;20410;-54
2022/11/02 08:27:26;;;;;;;;;;;;;;;10.44;76.89;101637.06;5070198;28;19926;-56
2022/11/02 08:29:52;;;;;;;;;;;;;;;10.47;76.97;101634.31;5069040;28;19963;-54
2022/11/02 08:32:17;;;;;;;;;;;;;;;10.51;77.16;101623.56;5063433;28;19921;-55
2022/11/02 08:34:42;;;;;;;;;;;;;;;10.56;77.18;101628.63;5074012;28;19966;-55
2022/11/02 08:37:08;;;;;;;;;;;;;;;10.62;77.22;101628.38;5064979;28;19917;-54
2022/11/02 08:39:33;;;;;;;;;;;;;;;10.66;77.11;101611.50;5061888;28;20276;-55
2022/11/02 08:41:58;;;;;;;;;;;;;;;10.77;77.22;101615.47;5069284;28;19923;-56
2022/11/02 08:44:24;;;;;;;;;;;;;;;10.87;76.94;101614.13;5072280;28;19928;-55
2022/11/02 08:46:49;;;;;;;;;;;;;;;11.00;76.97;101596.00;5074782;28;19917;-53
2022/11/02 08:49:17;;;;;;;;;;;;;;;11.13;76.94;101606.78;5070038;28;20010;-53
2022/11/02 08:51:42;;;;;;;;;;;;;;;11.28;76.61;101616.63;5062586;28;19921;-56
2022/11/02 08:54:08;;;;;;;;;;;;;;;11.41;76.09;101616.06;5067021;28;19930;-54
2022/11/02 08:56:33;;;;;;;;;;;;;;;11.54;75.75;101611.03;5069663;28;19917;-56
2022/11/02 08:58:58;;;;;;;;;;;;;;;11.67;75.94;101611.31;5073010;28;19920;-54
2022/11/02 09:01:24;;;;;;;;;;;;;;;11.76;75.00;101604.75;5074309;28;19958;-57
2022/11/02 09:03:49;;;;;;;;;;;;;;;11.81;74.54;101603.59;5070429;28;20007;-55
2022/11/02 09:06:14;;;;;;;;;;;;;;;11.89;74.94;101605.84;5066711;28;19926;-54
2022/11/02 09:08:40;;;;;;;;;;;;;;;11.96;74.29;101607.22;5065513;28;19924;-56
2022/11/02 09:11:05;;;;;;;;;;;;;;;12.04;73.91;101615.66;5066186;28;20283;-54
2022/11/02 09:13:31;;;;;;;;;;;;;;;12.15;73.74;101617.78;5068101;28;20000;-56
2022/11/02 09:15:57;;;;;;;;;;;;;;;12.26;73.66;101619.84;5072218;28;19936;-56
2022/11/02 09:18:22;;;;;;;;;;;;;;;12.38;73.71;101626.28;5069987;28;19921;-57
2022/11/02 09:20:48;;;;;;;;;;;;;;;12.49;73.54;101613.38;5075781;28;19916;-55
2022/11/02 09:23:17;;;;;;;;;;;;;;;12.58;73.44;101613.84;5084466;28;19916;-54
2022/11/02 09:25:43;;;;;;;;;;;;;;;12.68;73.07;101619.50;5068888;28;19916;-55
2022/11/02 09:28:08;;;;;;;;;;;;;;;12.75;72.48;101627.03;5065321;28;19917;-56
2022/11/02 09:30:33;;;;;;;;;;;;;;;12.83;72.31;101618.69;5070270;28;19959;-55
2022/11/02 09:33:01;;;;;;;;;;;;;;;12.88;71.99;101621.09;5065307;28;20380;-53
2022/11/02 09:35:27;;;;;;;;;;;;;;;12.96;72.35;101618.88;5067889;28;19920;-55
2022/11/02 09:37:53;;;;;;;;;;;;;;;12.99;72.04;101617.88;5063566;28;20311;-56
2022/11/02 09:40:20;;;;;;;;;;;;;;;12.97;71.17;101620.56;5079729;28;19920;-54
2022/11/02 09:42:54;;;;;;;;;;;;;;;12.90;69.48;101616.56;5067959;28;19942;-57
2022/11/02 09:45:20;;;;;;;;;;;;;;;12.89;69.33;101612.22;5078564;28;19918;-54
2022/11/02 09:48:01;;;;;;;;;;;;;;;12.94;69.08;101626.03;5066120;28;20348;-56
2022/11/02 09:50:37;;;;;;;;;;;;;;;12.99;69.70;101623.16;5068117;28;19967;-56
2022/11/02 09:53:03;;;;;;;;;;;;;;;13.00;69.10;101615.13;5065629;28;20451;-54
2022/11/02 09:55:34;;;;;;;;;;;;;;;13.02;69.03;101615.91;5067850;28;20053;-57
2022/11/02 09:58:06;;;;;;;;;;;;;;;13.02;68.88;101610.63;5071805;28;19913;-57
2022/11/02 10:00:34;;;;;;;;;;;;;;;13.03;69.05;101622.91;5065583;28;19963;-55
2022/11/02 10:03:02;;;;;;;;;;;;;;;13.06;69.09;101630.66;5065109;28;20279;-56
2022/11/02 10:05:34;;;;;;;;;;;;;;;13.10;68.59;101620.78;5067794;28;19920;-56
2022/11/02 10:07:59;;;;;;;;;;;;;;;13.10;68.25;101615.50;5066473;28;19932;-55
2022/11/02 10:10:27;;;;;;;;;;;;;;;13.07;67.96;101627.09;5065211;28;19928;-57
2022/11/02 10:12:55;;;;;;;;;;;;;;;13.03;68.00;101620.25;5070918;28;20007;-56
2022/11/02 10:15:24;;;;;;;;;;;;;;;12.99;68.24;101624.00;5067375;28;19919;-56
2022/11/02 10:17:52;;;;;;;;;;;;;;;12.95;68.73;101618.03;5069849;28;19916;-56
2022/11/02 10:20:41;;;;;;;;;;;;;;;12.93;68.97;101627.00;5063789;28;19920;-55
2022/11/02 10:23:07;;;;;;;;;;;;;;;12.88;68.79;101615.81;5059837;28;19912;-54
2022/11/02 10:25:34;;;;;;;;;;;;;;;12.85;68.88;101618.59;5066918;28;19959;-57
2022/11/02 10:28:03;;;;;;;;;;;;;;;12.81;68.95;101610.84;5063588;28;19916;-54
2022/11/02 10:30:28;;;;;;;;;;;;;;;12.80;69.11;101609.13;5073279;28;19928;-55
2022/11/02 10:32:54;;;;;;;;;;;;;;;12.81;68.54;101620.56;5065028;28;19916;-54
2022/11/02 10:35:29;;;;;;;;;;;;;;;12.80;68.67;101614.41;5072727;28;19916;-56
2022/11/02 10:38:09;;;;;;;;;;;;;;;12.81;68.62;101620.56;5065722;28;20018;-55
2022/11/02 10:40:34;;;;;;;;;;;;;;;12.81;68.21;101617.91;5068825;28;20417;-54
2022/11/02 10:43:12;;;;;;;;;;;;;;;12.83;68.17;101617.81;5069089;28;19916;-56
2022/11/02 10:45:43;;;;;;;;;;;;;;;12.83;68.29;101613.41;5064790;28;19912;-56
2022/11/02 10:48:27;;;;;;;;;;;;;;;12.84;68.05;101614.25;5061388;28;19944;-55
2022/11/02 10:51:06;;;;;;;;;;;;;;;12.87;68.07;101614.94;5063948;28;19995;-55
2022/11/02 10:53:39;;;;;;;;;;;;;;;12.88;68.30;101614.00;5066259;28;19956;-56
2022/11/02 10:56:07;;;;;;;;;;;;;;;12.91;67.75;101621.75;5067603;28;20430;-56
2022/11/02 10:58:35;;;;;;;;;;;;;;;12.95;68.23;101623.31;5067594;28;19913;-57
2022/11/02 11:01:10;;;;;;;;;;;;;;;12.99;67.97;101624.00;5068996;28;19919;-56
2022/11/02 11:03:54;;;;;;;;;;;;;;;13.02;67.83;101629.13;5061003;28;19916;-56
2022/11/02 11:06:21;;;;;;;;;;;;;;;13.06;67.45;101621.88;5070166;28;19963;-54
2022/11/02 11:08:48;;;;;;;;;;;;;;;13.08;67.32;101623.47;5065086;28;19916;-55
2022/11/02 11:11:24;;;;;;;;;;;;;;;13.13;67.58;101622.38;5066273;28;20371;-56
2022/11/02 11:13:54;;;;;;;;;;;;;;;13.17;66.76;101627.41;5065420;28;19916;-55
2022/11/02 11:16:29;;;;;;;;;;;;;;;13.20;66.89;101619.31;5071981;28;19948;-56
2022/11/02 11:18:54;;;;;;;;;;;;;;;13.25;66.16;101616.44;5071433;28;19920;-55
2022/11/02 11:21:20;;;;;;;;;;;;;;;13.29;65.95;101615.31;5071028;28;20019;-54
2022/11/02 11:23:45;;;;;;;;;;;;;;;13.31;65.37;101613.47;5060723;28;19927;-54
2022/11/02 11:26:30;;;;;;;;;;;;;;;13.37;65.71;101623.69;5067955;28;20051;-54
2022/11/02 11:28:55;;;;;;;;;;;;;;;13.41;65.48;101619.13;5067430;28;19921;-57
2022/11/02 11:31:21;;;;;;;;;;;;;;;13.48;65.57;101624.91;5070429;28;19920;-55
2022/11/02 11:33:54;;;;;;;;;;;;;;;13.50;65.18;101620.41;5057289;28;20427;-57
2022/11/02 11:36:21;;;;;;;;;;;;;;;13.54;64.73;101643.06;5065870;28;19978;-56
2022/11/02 11:38:48;;;;;;;;;;;;;;;13.60;64.16;101628.66;5064979;28;19916;-55
2022/11/02 11:41:14;;;;;;;;;;;;;;;13.63;63.80;101629.34;5065518;28;20288;-57
2022/11/02 11:43:40;;;;;;;;;;;;;;;13.66;63.43;101626.53;5073541;28;20406;-57
2022/11/02 11:46:06;;;;;;;;;;;;;;;13.68;63.56;101629.06;5069517;28;19974;-56
2022/11/02 11:48:44;;;;;;;;;;;;;;;13.70;63.40;101622.75;5066809;28;20404;-56
2022/11/02 11:51:18;;;;;;;;;;;;;;;13.75;63.26;101632.22;5065432;28;19913;-54
2022/11/02 11:54:02;;;;;;;;;;;;;;;13.79;63.34;101617.88;5063711;28;19920;-56
2022/11/02 11:56:33;;;;;;;;;;;;;;;13.83;62.72;101624.72;5064818;28;19916;-55
2022/11/02 11:58:58;;;;;;;;;;;;;;;13.89;61.99;101627.00;5064143;28;20010;-56
2022/11/02 12:01:23;;;;;;;;;;;;;;;13.95;61.62;101624.00;5071666;28;20017;-55
2022/11/02 12:04:02;;;;;;;;;;;;;;;13.99;62.28;101629.97;5066081;28;19978;-56
2022/11/02 12:06:33;;;;;;;;;;;;;;;14.03;62.02;101636.78;5068112;28;20579;-56
2022/11/02 12:09:16;;;;;;;;;;;;;;;14.09;61.25;101649.66;5073698;28;19924;-57
2022/11/02 12:11:44;;;;;;;;;;;;;;;14.18;60.17;101632.38;5066987;28;21164;-56
2022/11/02 12:14:15;;;;;;;;;;;;;;;14.29;60.64;101635.22;5090885;22;19940;-52
2022/11/02 12:16:44;;;;;;;;;;;;;;;14.43;60.54;101633.59;5044662;28;19933;-52
2022/11/02 12:19:09;;;;;;;;;;;;;;;14.47;59.64;101643.91;5049385;28;20008;-52
2022/11/02 12:21:37;;;;;;;;;;;;;;;14.50;59.01;101634.91;5049677;28;20007;-53
2022/11/02 12:24:05;;;;;;;;;;;;;;;14.57;58.26;101638.03;5047340;28;19925;-62
2022/11/02 12:26:43;;;;;;;;;;;;;;;14.61;57.65;101629.81;5027570;28;19920;-56
2022/11/02 12:29:27;;;;;;;;;;;;;;;14.69;57.27;101639.13;5035077;28;19925;-53
2022/11/02 12:32:01;;;;;;;;;;;;;;;14.71;57.13;101630.13;5039106;28;20299;-53
2022/11/02 12:34:32;;;;;;;;;;;;;;;14.69;57.16;101631.19;5037942;28;19936;-53
2022/11/02 12:37:19;;;;;;;;;;;;;;;14.61;57.11;101644.84;5036542;28;19944;-56
2022/11/02 12:39:44;;;;;;;;;;;;;;;14.60;57.51;101641.34;5042098;28;19912;-54
2022/11/02 12:42:22;;;;;;;;;;;;;;;14.66;57.23;101628.69;5038661;28;19923;-53
2022/11/02 12:44:53;;;;;;;;;;;;;;;14.64;56.98;101626.97;5038213;28;20008;-53
2022/11/02 12:47:29;;;;;;;;;;;;;;;14.68;56.71;101632.13;5036950;28;19924;-54
2022/11/02 12:50:04;;;;;;;;;;;;;;;14.72;56.71;101623.06;5042400;28;20032;-53
2022/11/02 12:52:29;;;;;;;;;;;;;;;14.74;56.74;101637.06;5032299;28;19924;-53
2022/11/02 12:54:56;;;;;;;;;;;;;;;14.69;56.76;101636.47;5040627;28;19920;-55
2022/11/02 12:57:23;;;;;;;;;;;;;;;14.69;57.13;101639.13;5042606;28;19913;-53
2022/11/02 12:59:55;;;;;;;;;;;;;;;14.72;57.39;101628.34;5036697;28;19921;-53
2022/11/02 13:02:26;;;;;;;;;;;;;;;14.71;57.36;101624.84;5037997;28;19932;-56